Time;durP1;ratioP1;P1;durP2;ratioP2;P2;SDS_P1;SDS_P2;PMS_P1;PMS_P2;Temp;Humidity;BMP_temperature;BMP_pressure;BME280_temperature;BME280_humidity;BME280_pressure;Samples;Min_cycle;Max_cycle;Signal;HPM_P1;HPM_P2
2022/01/20 00:01:37;;;;;;;;;;;8.70;71.60;;;;;;4974527;28;19918;-62
2022/01/20 00:04:11;;;;;;;;;;;8.70;71.20;;;;;;4974250;28;20412;-62
2022/01/20 00:20:39;;;;;;;;;;;8.70;71.50;;;;;;4974272;28;19910;-61
2022/01/20 00:23:18;;;;;;;;;;;8.50;72.90;;;;;;4974553;28;20002;-62
2022/01/20 00:25:59;;;;;;;;;;;8.60;72.70;;;;;;4974646;28;19910;-62
2022/01/20 00:28:38;;;;;;;;;;;8.50;72.80;;;;;;4974229;28;19917;-63
2022/01/20 00:31:14;;;;;;;;;;;8.60;72.70;;;;;;4974158;28;19957;-62
2022/01/20 00:33:46;;;;;;;;;;;8.70;72.80;;;;;;4974487;28;20413;-63
2022/01/20 00:38:42;;;;;;;;;;;8.70;72.80;;;;;;4974299;28;19980;-62
2022/01/20 00:41:12;;;;;;;;;;;8.70;73.10;;;;;;4974239;28;19910;-62
2022/01/20 00:43:38;;;;;;;;;;;8.80;73.00;;;;;;4974126;28;19937;-62
2022/01/20 00:46:03;;;;;;;;;;;8.80;73.10;;;;;;4974367;28;20306;-63
2022/01/20 00:48:29;;;;;;;;;;;8.70;73.20;;;;;;4974163;28;19940;-62
2022/01/20 00:50:54;;;;;;;;;;;8.70;73.60;;;;;;4974121;28;20002;-63
2022/01/20 00:53:20;;;;;;;;;;;8.80;73.60;;;;;;4974318;28;19914;-61
2022/01/20 00:55:46;;;;;;;;;;;8.60;73.80;;;;;;4977442;28;19917;-62
2022/01/20 00:58:11;;;;;;;;;;;8.80;73.80;;;;;;4977523;28;19918;-63
2022/01/20 01:00:37;;;;;;;;;;;8.70;74.00;;;;;;4977573;28;19933;-62
2022/01/20 01:03:03;;;;;;;;;;;8.60;74.20;;;;;;4976236;28;19957;-61
2022/01/20 01:05:29;;;;;;;;;;;8.70;74.20;;;;;;4977372;28;19922;-62
2022/01/20 01:07:56;;;;;;;;;;;8.70;74.20;;;;;;4977148;28;19910;-61
2022/01/20 01:10:26;;;;;;;;;;;8.70;74.80;;;;;;4977449;28;19917;-65
2022/01/20 01:15:29;;;;;;;;;;;8.70;74.00;;;;;;4977233;28;19956;-62
2022/01/20 01:23:25;;;;;;;;;;;8.80;73.60;;;;;;4976859;28;19917;-64
2022/01/20 01:25:51;;;;;;;;;;;8.90;73.20;;;;;;4977183;28;19918;-65
2022/01/20 01:28:18;;;;;;;;;;;9.00;73.00;;;;;;4977191;28;19910;-64
2022/01/20 01:33:12;;;;;;;;;;;8.90;73.40;;;;;;4976958;28;20277;-65
2022/01/20 01:35:40;;;;;;;;;;;8.90;73.70;;;;;;4977018;28;19916;-63
2022/01/20 01:40:32;;;;;;;;;;;8.80;74.50;;;;;;4976875;28;19914;-63
2022/01/20 01:43:01;;;;;;;;;;;8.80;74.10;;;;;;4980304;28;20330;-63
2022/01/20 01:45:30;;;;;;;;;;;8.60;74.60;;;;;;4993835;28;20298;-62
2022/01/20 01:47:56;;;;;;;;;;;8.50;74.90;;;;;;4994869;28;19953;-66
2022/01/20 01:50:22;;;;;;;;;;;8.60;75.20;;;;;;4993970;28;19914;-64
2022/01/20 01:52:48;;;;;;;;;;;8.70;74.50;;;;;;4983859;28;19914;-62
2022/01/20 01:55:14;;;;;;;;;;;8.60;74.80;;;;;;4977593;28;20000;-63
2022/01/20 01:57:39;;;;;;;;;;;8.60;75.10;;;;;;4977282;28;20345;-63
2022/01/20 02:00:06;;;;;;;;;;;8.50;75.50;;;;;;4976661;28;20255;-63
2022/01/20 02:02:32;;;;;;;;;;;8.50;75.60;;;;;;4976812;28;19933;-62
2022/01/20 02:04:57;;;;;;;;;;;8.50;75.70;;;;;;4976479;28;19922;-63
2022/01/20 02:18:36;;;;;;;;;;;8.60;75.50;;;;;;4976240;28;20277;-64
2022/01/20 02:21:03;;;;;;;;;;;8.60;75.50;;;;;;4976218;28;20274;-64
2022/01/20 02:23:28;;;;;;;;;;;8.60;75.70;;;;;;4976068;28;19911;-63
2022/01/20 02:25:54;;;;;;;;;;;8.60;75.50;;;;;;4976173;28;19910;-62
2022/01/20 02:28:19;;;;;;;;;;;8.60;75.50;;;;;;4976036;28;20001;-62
2022/01/20 02:30:45;;;;;;;;;;;8.50;75.90;;;;;;4976109;28;20296;-62
2022/01/20 02:33:12;;;;;;;;;;;8.50;75.70;;;;;;4976033;28;19961;-64
2022/01/20 02:35:39;;;;;;;;;;;8.50;75.90;;;;;;4975682;28;19945;-61
2022/01/20 02:38:29;;;;;;;;;;;8.50;76.00;;;;;;4975747;28;20005;-62
2022/01/20 02:46:19;;;;;;;;;;;8.50;76.10;;;;;;4975769;28;19964;-62
2022/01/20 02:48:45;;;;;;;;;;;8.50;76.30;;;;;;4975637;28;19946;-62
2022/01/20 02:51:10;;;;;;;;;;;8.50;76.40;;;;;;4975695;28;19942;-62
2022/01/20 02:53:36;;;;;;;;;;;8.50;76.30;;;;;;4975498;28;19916;-62
2022/01/20 02:56:02;;;;;;;;;;;8.60;76.10;;;;;;4975302;28;20010;-64
2022/01/20 02:58:27;;;;;;;;;;;8.70;76.10;;;;;;4975627;28;20334;-62
2022/01/20 03:00:53;;;;;;;;;;;8.60;75.90;;;;;;4975522;28;20390;-62
2022/01/20 03:03:19;;;;;;;;;;;8.60;76.10;;;;;;4975421;28;19964;-63
2022/01/20 03:05:45;;;;;;;;;;;8.50;76.40;;;;;;4975268;28;19926;-61
2022/01/20 03:08:10;;;;;;;;;;;8.40;76.50;;;;;;4975254;28;20274;-62
2022/01/20 03:10:37;;;;;;;;;;;8.40;76.80;;;;;;4975437;28;20006;-61
2022/01/20 03:13:03;;;;;;;;;;;8.30;77.10;;;;;;4975203;28;19910;-63
2022/01/20 03:15:28;;;;;;;;;;;8.10;77.80;;;;;;4975370;28;19918;-62
2022/01/20 03:17:54;;;;;;;;;;;8.10;78.10;;;;;;4975222;28;19918;-61
2022/01/20 03:20:19;;;;;;;;;;;8.10;78.10;;;;;;4974849;28;19968;-62
2022/01/20 03:22:45;;;;;;;;;;;8.10;78.00;;;;;;4974981;28;19992;-60
2022/01/20 03:25:11;;;;;;;;;;;8.20;78.20;;;;;;4975133;28;19911;-60
2022/01/20 03:27:38;;;;;;;;;;;8.10;77.90;;;;;;4974973;28;19922;-64
2022/01/20 03:30:04;;;;;;;;;;;8.10;78.00;;;;;;4975059;28;20009;-62
2022/01/20 03:32:30;;;;;;;;;;;8.20;78.10;;;;;;4974613;28;19911;-62
2022/01/20 03:34:55;;;;;;;;;;;8.20;77.90;;;;;;4975146;28;19910;-63
2022/01/20 03:37:21;;;;;;;;;;;8.30;77.80;;;;;;4974870;28;19917;-62
2022/01/20 03:39:46;;;;;;;;;;;8.30;77.80;;;;;;4974519;28;19918;-61
2022/01/20 03:42:12;;;;;;;;;;;8.20;77.80;;;;;;4974784;28;19917;-63
2022/01/20 03:44:37;;;;;;;;;;;8.20;77.80;;;;;;4974779;28;19914;-62
2022/01/20 03:47:03;;;;;;;;;;;8.20;77.90;;;;;;4974761;28;19997;-61
2022/01/20 03:50:59;;;;;;;;;;;8.10;78.10;;;;;;4974590;28;20277;-62
2022/01/20 03:52:24;;;;;;;;;;;8.10;78.20;;;;;;4969953;28;19911;-62
2022/01/20 03:54:50;;;;;;;;;;;8.10;78.70;;;;;;4974593;28;20430;-61
2022/01/20 03:57:15;;;;;;;;;;;8.00;78.70;;;;;;4974710;28;19910;-63
2022/01/20 03:59:41;;;;;;;;;;;8.00;79.00;;;;;;4974384;28;19963;-61
2022/01/20 04:02:06;;;;;;;;;;;7.90;79.00;;;;;;4974452;28;20309;-62
2022/01/20 04:04:32;;;;;;;;;;;8.00;79.10;;;;;;4974538;28;19911;-63
2022/01/20 04:06:58;;;;;;;;;;;8.00;79.20;;;;;;4974417;28;20274;-62
2022/01/20 04:09:23;;;;;;;;;;;7.90;79.00;;;;;;4974491;28;20369;-62
2022/01/20 04:11:49;;;;;;;;;;;7.90;79.10;;;;;;4974404;28;19917;-62
2022/01/20 04:14:15;;;;;;;;;;;8.00;79.50;;;;;;4974404;28;19910;-61
2022/01/20 04:19:28;;;;;;;;;;;8.00;79.10;;;;;;4974046;28;19933;-61
2022/01/20 04:21:54;;;;;;;;;;;8.10;79.10;;;;;;4974494;28;19937;-62
2022/01/20 04:24:19;;;;;;;;;;;8.10;79.20;;;;;;4974477;28;20007;-63
2022/01/20 04:26:46;;;;;;;;;;;8.10;79.10;;;;;;4974372;28;19917;-62
2022/01/20 04:29:12;;;;;;;;;;;8.20;79.10;;;;;;4975720;28;19917;-62
2022/01/20 04:31:39;;;;;;;;;;;8.20;78.90;;;;;;4978005;28;19910;-63
2022/01/20 04:34:05;;;;;;;;;;;8.20;79.00;;;;;;4978261;28;20004;-62
2022/01/20 04:36:33;;;;;;;;;;;8.20;79.10;;;;;;4978032;28;20001;-62
2022/01/20 04:39:01;;;;;;;;;;;8.20;78.90;;;;;;4978089;28;20322;-63
2022/01/20 04:41:29;;;;;;;;;;;8.30;78.70;;;;;;4977797;28;20362;-61
2022/01/20 04:43:55;;;;;;;;;;;8.30;78.60;;;;;;4977981;28;19972;-61
2022/01/20 04:46:43;;;;;;;;;;;8.30;78.50;;;;;;4978067;28;19910;-63
2022/01/20 04:57:03;;;;;;;;;;;8.30;78.50;;;;;;4978160;28;19910;-63
2022/01/20 04:57:22;;;;;;;;;;;8.30;78.60;;;;;;4956500;29;20299;-61
2022/01/20 04:59:49;;;;;;;;;;;8.40;78.10;;;;;;4956366;29;19919;-63
2022/01/20 05:02:15;;;;;;;;;;;8.30;78.30;;;;;;4956054;28;20679;-62
2022/01/20 05:04:41;;;;;;;;;;;8.30;78.40;;;;;;4956113;29;19921;-62
2022/01/20 05:07:08;;;;;;;;;;;8.30;78.60;;;;;;4956143;29;19918;-63
2022/01/20 05:09:34;;;;;;;;;;;8.30;78.60;;;;;;4955999;29;19911;-64
2022/01/20 05:12:04;;;;;;;;;;;8.20;78.70;;;;;;4956095;28;19917;-62
2022/01/20 05:14:29;;;;;;;;;;;8.30;78.80;;;;;;4956066;29;19966;-63
2022/01/20 05:16:55;;;;;;;;;;;8.20;79.10;;;;;;4955991;29;19914;-62
2022/01/20 05:19:24;;;;;;;;;;;8.30;79.20;;;;;;4955745;29;19976;-62
2022/01/20 05:21:50;;;;;;;;;;;8.20;79.00;;;;;;4955759;28;19910;-63
2022/01/20 05:24:15;;;;;;;;;;;8.20;79.30;;;;;;4956008;29;20010;-62
2022/01/20 05:26:41;;;;;;;;;;;8.20;79.40;;;;;;4955681;29;19910;-61
2022/01/20 05:29:06;;;;;;;;;;;8.20;80.00;;;;;;4967704;28;20362;-63
2022/01/20 05:31:32;;;;;;;;;;;8.20;79.40;;;;;;4976747;28;19914;-62
2022/01/20 05:33:57;;;;;;;;;;;8.20;79.40;;;;;;4977906;28;19910;-62
2022/01/20 05:36:23;;;;;;;;;;;8.20;79.30;;;;;;4977311;28;19910;-63
2022/01/20 05:38:49;;;;;;;;;;;8.20;79.50;;;;;;4976755;28;19918;-62
2022/01/20 05:41:14;;;;;;;;;;;8.20;79.70;;;;;;4975797;28;19918;-62
2022/01/20 05:43:40;;;;;;;;;;;8.20;79.40;;;;;;4976824;28;19914;-65
2022/01/20 05:46:06;;;;;;;;;;;8.20;79.50;;;;;;4976657;28;19910;-63
2022/01/20 05:48:33;;;;;;;;;;;8.20;79.80;;;;;;4976896;28;19946;-62
2022/01/20 05:50:59;;;;;;;;;;;8.20;79.80;;;;;;4976715;28;19926;-62
2022/01/20 05:53:25;;;;;;;;;;;8.20;79.80;;;;;;4976664;28;19910;-61
2022/01/20 05:55:51;;;;;;;;;;;8.20;79.70;;;;;;4976439;28;20293;-61
2022/01/20 05:58:19;;;;;;;;;;;8.20;79.60;;;;;;4976464;28;20004;-62
2022/01/20 06:00:46;;;;;;;;;;;8.20;79.60;;;;;;4977031;28;19949;-62
2022/01/20 06:05:56;;;;;;;;;;;8.20;79.90;;;;;;4976347;28;20341;-61
2022/01/20 06:08:21;;;;;;;;;;;8.20;80.00;;;;;;4976304;28;19914;-62
2022/01/20 06:10:47;;;;;;;;;;;8.10;80.00;;;;;;4976882;28;20005;-62
2022/01/20 06:13:13;;;;;;;;;;;8.20;79.60;;;;;;4975964;28;19921;-61
2022/01/20 06:15:38;;;;;;;;;;;8.20;79.70;;;;;;4976397;28;19961;-62
2022/01/20 06:18:04;;;;;;;;;;;8.30;79.50;;;;;;4976355;28;19914;-61
2022/01/20 06:20:30;;;;;;;;;;;8.40;79.40;;;;;;4976112;28;20286;-62
2022/01/20 06:22:56;;;;;;;;;;;8.30;79.30;;;;;;4976239;28;19918;-61
2022/01/20 06:25:22;;;;;;;;;;;8.30;79.30;;;;;;4976212;28;19910;-62
2022/01/20 06:27:48;;;;;;;;;;;8.30;79.40;;;;;;4976034;28;19922;-61
2022/01/20 06:30:13;;;;;;;;;;;8.30;79.60;;;;;;4976259;28;19921;-62
2022/01/20 06:32:39;;;;;;;;;;;8.30;79.70;;;;;;4975837;28;20286;-61
2022/01/20 06:35:05;;;;;;;;;;;8.30;79.70;;;;;;4976151;28;20381;-62
2022/01/20 06:37:30;;;;;;;;;;;8.30;79.70;;;;;;4976225;28;19914;-61
2022/01/20 06:39:56;;;;;;;;;;;8.20;79.70;;;;;;4975647;28;20271;-63
2022/01/20 06:42:22;;;;;;;;;;;8.30;79.60;;;;;;4975807;28;19957;-62
2022/01/20 06:44:47;;;;;;;;;;;8.40;79.50;;;;;;4975742;28;20373;-61
2022/01/20 06:47:13;;;;;;;;;;;8.30;79.40;;;;;;4975858;28;20437;-62
2022/01/20 06:49:39;;;;;;;;;;;8.30;79.60;;;;;;4975763;28;19910;-61
2022/01/20 06:52:04;;;;;;;;;;;8.40;79.20;;;;;;4975232;28;19957;-63
2022/01/20 06:54:30;;;;;;;;;;;8.40;79.00;;;;;;4975838;28;19941;-62
2022/01/20 06:56:56;;;;;;;;;;;8.30;79.10;;;;;;4975549;28;19952;-65
2022/01/20 06:59:21;;;;;;;;;;;8.30;79.30;;;;;;4975760;28;20017;-62
2022/01/20 07:01:48;;;;;;;;;;;8.30;79.40;;;;;;4978671;28;19942;-63
2022/01/20 07:04:14;;;;;;;;;;;8.50;79.40;;;;;;4992452;28;19918;-62
2022/01/20 07:06:40;;;;;;;;;;;8.60;78.90;;;;;;4987472;28;19922;-60
2022/01/20 07:09:10;;;;;;;;;;;8.70;78.60;;;;;;4982552;28;19911;-62
2022/01/20 07:11:39;;;;;;;;;;;8.90;78.00;;;;;;4976185;28;19915;-61
2022/01/20 07:14:04;;;;;;;;;;;9.10;77.30;;;;;;4975897;28;20361;-61
2022/01/20 07:16:30;;;;;;;;;;;9.30;76.60;;;;;;4975478;28;19922;-62
2022/01/20 07:18:56;;;;;;;;;;;9.40;76.40;;;;;;4975279;28;19918;-63
2022/01/20 07:21:21;;;;;;;;;;;9.50;76.40;;;;;;4975070;28;19917;-61
2022/01/20 07:23:47;;;;;;;;;;;9.40;76.70;;;;;;4976042;28;19914;-62
2022/01/20 07:26:13;;;;;;;;;;;9.30;77.00;;;;;;4975942;28;19910;-64
2022/01/20 07:28:39;;;;;;;;;;;9.40;77.20;;;;;;4974497;28;19961;-61
2022/01/20 07:31:05;;;;;;;;;;;9.50;76.90;;;;;;4975891;28;19910;-64
2022/01/20 07:33:31;;;;;;;;;;;9.70;77.00;;;;;;4975340;28;19921;-61
2022/01/20 07:35:56;;;;;;;;;;;9.70;76.20;;;;;;4975341;28;19910;-63
2022/01/20 07:38:22;;;;;;;;;;;9.40;77.20;;;;;;4975800;28;19961;-61
2022/01/20 07:40:47;;;;;;;;;;;9.10;78.50;;;;;;4975310;28;20693;-60
2022/01/20 07:43:13;;;;;;;;;;;9.10;79.60;;;;;;4973697;28;19910;-60
2022/01/20 07:45:39;;;;;;;;;;;9.00;79.80;;;;;;4975263;28;19910;-60
2022/01/20 07:48:04;;;;;;;;;;;8.80;80.50;;;;;;4975040;28;20233;-61
2022/01/20 07:50:30;;;;;;;;;;;8.70;81.50;;;;;;4975197;28;19914;-60
2022/01/20 07:52:56;;;;;;;;;;;8.60;82.10;;;;;;4974303;28;19949;-60
2022/01/20 07:55:21;;;;;;;;;;;8.60;82.40;;;;;;4974412;28;20281;-60
2022/01/20 07:57:47;;;;;;;;;;;8.50;82.70;;;;;;4974302;28;19910;-62
2022/01/20 08:00:13;;;;;;;;;;;8.50;83.20;;;;;;4974524;28;20017;-61
2022/01/20 08:02:38;;;;;;;;;;;8.50;83.60;;;;;;4977760;28;19910;-68
2022/01/20 08:05:04;;;;;;;;;;;8.40;83.90;;;;;;4975901;28;19934;-62
2022/01/20 08:07:30;;;;;;;;;;;8.40;84.30;;;;;;4974407;28;19910;-63
2022/01/20 08:09:58;;;;;;;;;;;8.40;84.40;;;;;;4974402;28;19917;-60
2022/01/20 08:12:24;;;;;;;;;;;8.50;84.50;;;;;;4974320;28;19910;-62
2022/01/20 08:14:50;;;;;;;;;;;8.40;84.50;;;;;;4974626;28;19914;-63
2022/01/20 08:17:16;;;;;;;;;;;8.40;84.70;;;;;;4974718;28;19936;-62
2022/01/20 08:19:42;;;;;;;;;;;8.40;84.90;;;;;;4974918;28;20259;-62
2022/01/20 08:22:07;;;;;;;;;;;8.50;84.90;;;;;;4974298;28;20271;-62
2022/01/20 08:24:33;;;;;;;;;;;8.50;84.80;;;;;;4974112;28;19911;-62
2022/01/20 08:26:58;;;;;;;;;;;8.50;84.90;;;;;;4974508;28;19910;-60
2022/01/20 08:29:24;;;;;;;;;;;8.50;84.80;;;;;;4974069;28;19910;-62
2022/01/20 08:31:49;;;;;;;;;;;8.60;84.80;;;;;;4974102;28;19925;-63
2022/01/20 08:34:15;;;;;;;;;;;8.60;84.80;;;;;;4974521;28;19911;-62
2022/01/20 08:36:41;;;;;;;;;;;8.60;85.20;;;;;;4974171;28;20340;-63
2022/01/20 08:41:51;;;;;;;;;;;8.70;84.70;;;;;;4974012;28;19972;-62
2022/01/20 08:44:16;;;;;;;;;;;8.70;84.60;;;;;;4974323;28;19910;-62
2022/01/20 08:46:42;;;;;;;;;;;8.70;84.90;;;;;;4974325;28;19911;-60
2022/01/20 08:49:08;;;;;;;;;;;8.70;84.70;;;;;;4974350;28;19969;-62
2022/01/20 08:51:33;;;;;;;;;;;8.60;84.90;;;;;;4974334;28;20002;-63
2022/01/20 08:53:59;;;;;;;;;;;8.60;85.00;;;;;;4974188;28;19981;-61
2022/01/20 08:56:24;;;;;;;;;;;8.70;84.50;;;;;;4973668;28;20282;-65
2022/01/20 08:58:50;;;;;;;;;;;8.70;84.70;;;;;;4974114;28;19929;-62
2022/01/20 09:01:16;;;;;;;;;;;8.90;84.10;;;;;;4974389;28;20377;-62
2022/01/20 09:03:43;;;;;;;;;;;8.80;84.10;;;;;;4989264;28;19921;-65
2022/01/20 09:06:08;;;;;;;;;;;8.80;84.30;;;;;;4992215;28;19922;-64
2022/01/20 09:08:34;;;;;;;;;;;8.70;84.70;;;;;;4983418;28;19911;-62
2022/01/20 09:11:01;;;;;;;;;;;8.70;85.60;;;;;;4973740;28;19917;-62
2022/01/20 09:16:11;;;;;;;;;;;8.70;85.30;;;;;;4976188;28;19937;-63
2022/01/20 09:18:36;;;;;;;;;;;8.60;85.70;;;;;;4976600;28;20378;-66
2022/01/20 09:21:02;;;;;;;;;;;8.70;84.10;;;;;;4977014;28;19977;-62
2022/01/20 09:23:28;;;;;;;;;;;8.70;84.60;;;;;;4976613;28;19910;-61
2022/01/20 09:25:53;;;;;;;;;;;8.60;85.20;;;;;;4976765;28;20009;-63
2022/01/20 09:28:19;;;;;;;;;;;8.70;85.30;;;;;;4976978;28;19910;-62
2022/01/20 09:30:46;;;;;;;;;;;8.70;83.40;;;;;;4976861;28;19949;-61
2022/01/20 09:33:14;;;;;;;;;;;8.60;83.60;;;;;;4976223;28;19910;-60
2022/01/20 09:35:41;;;;;;;;;;;8.70;81.50;;;;;;4976844;28;19917;-62
2022/01/20 09:38:07;;;;;;;;;;;8.80;81.50;;;;;;4976221;28;20004;-61
2022/01/20 09:40:33;;;;;;;;;;;8.70;82.10;;;;;;4976453;28;19917;-61
2022/01/20 09:43:00;;;;;;;;;;;8.80;81.80;;;;;;4976415;28;19910;-61
2022/01/20 09:45:26;;;;;;;;;;;8.80;81.50;;;;;;4976760;28;20354;-63
2022/01/20 09:47:51;;;;;;;;;;;8.80;82.40;;;;;;4976333;28;19997;-61
2022/01/20 09:50:19;;;;;;;;;;;8.90;82.20;;;;;;4976593;28;19994;-61
2022/01/20 09:52:45;;;;;;;;;;;8.90;81.20;;;;;;4974084;28;19957;-60
2022/01/20 09:55:11;;;;;;;;;;;8.90;80.50;;;;;;4976194;28;19937;-63
2022/01/20 09:57:36;;;;;;;;;;;8.90;81.10;;;;;;4976152;28;19910;-62
2022/01/20 10:00:04;;;;;;;;;;;8.80;81.70;;;;;;4975969;28;19981;-63
2022/01/20 10:02:29;;;;;;;;;;;8.70;82.00;;;;;;4975372;28;19910;-62
2022/01/20 10:04:56;;;;;;;;;;;8.80;82.30;;;;;;4976106;28;19926;-61
2022/01/20 10:07:22;;;;;;;;;;;8.80;82.10;;;;;;4975799;28;20318;-61
2022/01/20 10:09:49;;;;;;;;;;;8.70;82.20;;;;;;4975141;28;19914;-64
2022/01/20 10:12:16;;;;;;;;;;;8.70;82.40;;;;;;4976622;28;19910;-64
2022/01/20 10:14:46;;;;;;;;;;;8.70;82.80;;;;;;4976618;28;20021;-62
2022/01/20 10:17:25;;;;;;;;;;;8.80;82.30;;;;;;4976513;28;19921;-61
2022/01/20 10:19:51;;;;;;;;;;;8.90;82.20;;;;;;4976688;28;19922;-61
2022/01/20 10:22:21;;;;;;;;;;;9.00;81.40;;;;;;4976327;28;20374;-60
2022/01/20 10:25:03;;;;;;;;;;;8.90;81.50;;;;;;4976429;28;19965;-60
2022/01/20 10:27:34;;;;;;;;;;;8.80;81.80;;;;;;4976009;28;19914;-61
2022/01/20 10:30:11;;;;;;;;;;;8.80;82.00;;;;;;4978823;28;19965;-61
2022/01/20 10:32:44;;;;;;;;;;;8.80;82.50;;;;;;4978701;28;19953;-61
2022/01/20 10:35:11;;;;;;;;;;;8.70;82.90;;;;;;4978384;28;20330;-60
2022/01/20 10:37:37;;;;;;;;;;;8.80;82.80;;;;;;4976843;28;20421;-61
2022/01/20 10:40:06;;;;;;;;;;;8.80;82.40;;;;;;4975822;28;21601;-63
2022/01/20 10:42:36;;;;;;;;;;;8.80;81.50;;;;;;4976092;28;19925;-63
2022/01/20 10:45:01;;;;;;;;;;;8.90;80.70;;;;;;4976243;28;19918;-64
2022/01/20 10:47:31;;;;;;;;;;;9.10;80.90;;;;;;4976081;28;20362;-63
2022/01/20 10:50:07;;;;;;;;;;;9.10;80.70;;;;;;4976130;28;20001;-65
2022/01/20 10:52:34;;;;;;;;;;;8.90;81.30;;;;;;4976218;28;20009;-63
2022/01/20 10:55:00;;;;;;;;;;;8.80;83.80;;;;;;4983632;28;19911;-62
2022/01/20 10:57:27;;;;;;;;;;;8.80;83.80;;;;;;4989915;28;19997;-64
2022/01/20 10:59:57;;;;;;;;;;;8.80;84.50;;;;;;4987141;28;19918;-66
2022/01/20 11:02:27;;;;;;;;;;;8.70;84.80;;;;;;4990248;28;19925;-64
2022/01/20 11:04:53;;;;;;;;;;;8.80;84.90;;;;;;4989494;28;19953;-62
2022/01/20 11:07:19;;;;;;;;;;;8.80;84.50;;;;;;4977059;28;19925;-61
2022/01/20 11:09:47;;;;;;;;;;;8.90;84.40;;;;;;4976546;28;19915;-65
2022/01/20 11:12:14;;;;;;;;;;;8.90;84.40;;;;;;4974345;28;19917;-62
2022/01/20 11:14:41;;;;;;;;;;;9.00;84.30;;;;;;4976172;28;19956;-61
2022/01/20 11:17:07;;;;;;;;;;;9.10;85.10;;;;;;4975667;28;19910;-61
2022/01/20 11:19:37;;;;;;;;;;;9.10;84.00;;;;;;4975229;28;19925;-62
2022/01/20 11:22:06;;;;;;;;;;;9.10;84.00;;;;;;4975356;28;20008;-61
2022/01/20 11:24:32;;;;;;;;;;;9.10;83.90;;;;;;4975298;28;20046;-63
2022/01/20 11:26:59;;;;;;;;;;;9.10;84.20;;;;;;4975562;28;20277;-61
2022/01/20 11:29:37;;;;;;;;;;;9.10;84.40;;;;;;4975387;28;19910;-62
2022/01/20 11:32:14;;;;;;;;;;;9.10;84.00;;;;;;4975131;28;19914;-61
2022/01/20 11:34:40;;;;;;;;;;;9.10;83.80;;;;;;4975083;28;20405;-62
2022/01/20 11:37:06;;;;;;;;;;;9.10;83.80;;;;;;4975576;28;19910;-61
2022/01/20 11:39:32;;;;;;;;;;;9.10;83.10;;;;;;4974312;28;19918;-64
2022/01/20 11:41:57;;;;;;;;;;;9.10;82.70;;;;;;4974976;28;19910;-61
2022/01/20 11:44:28;;;;;;;;;;;9.20;82.70;;;;;;4975204;28;19950;-63
2022/01/20 11:47:03;;;;;;;;;;;9.30;82.20;;;;;;4974714;28;19910;-61
2022/01/20 11:49:34;;;;;;;;;;;9.40;82.50;;;;;;4975107;28;19921;-61
2022/01/20 11:51:59;;;;;;;;;;;9.50;82.20;;;;;;4974761;28;20008;-60
2022/01/20 11:54:32;;;;;;;;;;;9.50;81.60;;;;;;4974802;28;20374;-60
2022/01/20 11:57:09;;;;;;;;;;;9.50;81.00;;;;;;4974596;28;20358;-60
2022/01/20 11:59:36;;;;;;;;;;;9.40;80.60;;;;;;4974703;28;19918;-60
2022/01/20 12:02:03;;;;;;;;;;;9.30;81.90;;;;;;4974834;28;20354;-64
2022/01/20 12:04:32;;;;;;;;;;;9.40;80.90;;;;;;4974550;28;20393;-60
2022/01/20 12:06:58;;;;;;;;;;;9.50;81.20;;;;;;4974728;28;19918;-62
2022/01/20 12:09:28;;;;;;;;;;;9.40;79.80;;;;;;4974585;28;20216;-59
2022/01/20 12:11:53;;;;;;;;;;;9.30;81.00;;;;;;4974587;28;19910;-61
2022/01/20 12:14:36;;;;;;;;;;;9.30;79.70;;;;;;4974590;28;19910;-61
2022/01/20 12:17:03;;;;;;;;;;;9.30;80.60;;;;;;4974699;28;20358;-61
2022/01/20 12:19:29;;;;;;;;;;;9.40;80.30;;;;;;4974529;28;19918;-61
2022/01/20 12:21:54;;;;;;;;;;;9.50;79.40;;;;;;4974598;28;20301;-62
2022/01/20 12:24:20;;;;;;;;;;;9.40;78.70;;;;;;4974499;28;19949;-61
2022/01/20 12:26:46;;;;;;;;;;;9.50;79.90;;;;;;4974427;28;20309;-60
2022/01/20 12:29:12;;;;;;;;;;;9.60;78.50;;;;;;4974710;28;20334;-61
2022/01/20 12:31:53;;;;;;;;;;;9.70;78.80;;;;;;4974429;28;19911;-60
2022/01/20 12:34:22;;;;;;;;;;;9.80;78.80;;;;;;4974283;28;20416;-60
2022/01/20 12:36:54;;;;;;;;;;;9.70;78.10;;;;;;4974259;28;19911;-61
2022/01/20 12:39:26;;;;;;;;;;;9.80;79.50;;;;;;4974505;28;19918;-61
2022/01/20 12:41:55;;;;;;;;;;;9.80;78.60;;;;;;4974035;28;20438;-62
2022/01/20 12:44:20;;;;;;;;;;;10.00;78.50;;;;;;4974358;28;20330;-61
2022/01/20 12:46:46;;;;;;;;;;;10.00;77.70;;;;;;4973407;28;19917;-60
2022/01/20 12:49:12;;;;;;;;;;;10.00;77.00;;;;;;4973984;28;19997;-60
2022/01/20 12:51:41;;;;;;;;;;;9.90;76.50;;;;;;4977240;28;19910;-61
2022/01/20 12:54:12;;;;;;;;;;;9.70;76.80;;;;;;4977784;28;19910;-60
2022/01/20 12:56:41;;;;;;;;;;;9.80;77.30;;;;;;4977706;28;20309;-61
2022/01/20 12:59:07;;;;;;;;;;;9.80;76.60;;;;;;4977612;28;20362;-61
2022/01/20 13:01:38;;;;;;;;;;;9.80;76.60;;;;;;4977577;28;19910;-61
2022/01/20 13:04:05;;;;;;;;;;;9.60;76.10;;;;;;4977381;28;19910;-61
2022/01/20 13:06:32;;;;;;;;;;;9.70;77.20;;;;;;4976696;28;19930;-61
2022/01/20 13:09:06;;;;;;;;;;;9.60;77.80;;;;;;4976884;28;19910;-60
2022/01/20 13:11:32;;;;;;;;;;;9.60;77.50;;;;;;4976619;28;19910;-60
2022/01/20 13:13:58;;;;;;;;;;;9.60;78.10;;;;;;4976983;28;19918;-62
2022/01/20 13:16:24;;;;;;;;;;;9.70;78.10;;;;;;4977317;28;20001;-61
2022/01/20 13:18:53;;;;;;;;;;;9.70;76.50;;;;;;4977327;28;19964;-61
2022/01/20 13:21:19;;;;;;;;;;;9.70;77.20;;;;;;4977319;28;19910;-62
2022/01/20 13:23:57;;;;;;;;;;;9.50;75.70;;;;;;4977126;28;19911;-62
2022/01/20 13:26:23;;;;;;;;;;;9.50;77.20;;;;;;4977165;28;20381;-62
2022/01/20 13:29:05;;;;;;;;;;;9.50;77.80;;;;;;4969493;28;20004;-62
2022/01/20 13:31:31;;;;;;;;;;;9.50;78.10;;;;;;4957665;28;19910;-61
2022/01/20 13:34:10;;;;;;;;;;;9.50;78.40;;;;;;4957551;28;19911;-63
2022/01/20 13:36:40;;;;;;;;;;;9.50;77.40;;;;;;4957724;28;19953;-64
2022/01/20 13:39:06;;;;;;;;;;;9.50;77.70;;;;;;4957411;28;20363;-60
2022/01/20 13:41:32;;;;;;;;;;;9.40;77.10;;;;;;4957550;28;20001;-63
2022/01/20 13:46:44;;;;;;;;;;;9.40;77.80;;;;;;4957796;29;20262;-67
2022/01/20 13:49:11;;;;;;;;;;;9.30;78.20;;;;;;4957615;28;19950;-64
2022/01/20 13:51:37;;;;;;;;;;;9.40;78.10;;;;;;4972104;28;19910;-61
2022/01/20 13:54:03;;;;;;;;;;;9.40;77.30;;;;;;4957178;28;19966;-63
2022/01/20 13:56:30;;;;;;;;;;;9.50;77.20;;;;;;4957065;29;20318;-63
2022/01/20 13:59:05;;;;;;;;;;;9.40;77.90;;;;;;4957087;28;19918;-61
2022/01/20 14:01:31;;;;;;;;;;;9.50;78.00;;;;;;4956307;28;19911;-63
2022/01/20 14:03:56;;;;;;;;;;;9.50;78.00;;;;;;4957281;28;20375;-63
2022/01/20 14:06:22;;;;;;;;;;;9.50;77.40;;;;;;4957005;28;19926;-64
2022/01/20 14:08:48;;;;;;;;;;;9.50;77.10;;;;;;4971754;28;19919;-64
2022/01/20 14:11:14;;;;;;;;;;;9.50;77.40;;;;;;4956774;28;19910;-62
2022/01/20 14:13:40;;;;;;;;;;;9.40;78.40;;;;;;4956830;28;19914;-66
2022/01/20 14:16:06;;;;;;;;;;;9.40;79.30;;;;;;4956823;28;19917;-61
2022/01/20 14:18:40;;;;;;;;;;;9.50;79.10;;;;;;4956441;28;19969;-63
2022/01/20 14:21:07;;;;;;;;;;;9.50;79.00;;;;;;4956813;28;19918;-63
2022/01/20 14:23:32;;;;;;;;;;;9.50;79.40;;;;;;4956775;28;20354;-73
2022/01/20 14:26:01;;;;;;;;;;;9.50;79.40;;;;;;4956660;29;19957;-64
2022/01/20 14:28:26;;;;;;;;;;;9.50;79.50;;;;;;4956746;28;19917;-66
2022/01/20 14:30:52;;;;;;;;;;;9.50;79.30;;;;;;4966197;28;19915;-63
2022/01/20 14:33:18;;;;;;;;;;;9.50;79.50;;;;;;4977781;28;19910;-65
2022/01/20 14:35:44;;;;;;;;;;;9.50;79.30;;;;;;4980831;28;20332;-66
2022/01/20 14:38:10;;;;;;;;;;;9.40;79.00;;;;;;4975370;28;19917;-63
2022/01/20 14:40:36;;;;;;;;;;;9.40;78.90;;;;;;4978039;28;19914;-65
2022/01/20 14:43:01;;;;;;;;;;;9.40;79.10;;;;;;4977963;28;20015;-67
2022/01/20 14:45:27;;;;;;;;;;;9.40;80.30;;;;;;4975658;28;20005;-66
2022/01/20 14:47:53;;;;;;;;;;;9.70;81.70;;;;;;4977804;28;19914;-65
2022/01/20 14:50:23;;;;;;;;;;;9.70;78.30;;;;;;4974900;28;20425;-62
2022/01/20 14:52:49;;;;;;;;;;;9.60;79.00;;;;;;4975070;28;19918;-64
2022/01/20 14:55:14;;;;;;;;;;;9.50;78.30;;;;;;4977759;28;20053;-66
2022/01/20 14:57:40;;;;;;;;;;;9.50;78.00;;;;;;4974797;28;19961;-64
2022/01/20 15:00:07;;;;;;;;;;;9.50;78.40;;;;;;4974812;28;19929;-66
2022/01/20 15:02:32;;;;;;;;;;;9.50;79.80;;;;;;4975873;28;19913;-63
2022/01/20 15:04:58;;;;;;;;;;;9.50;80.00;;;;;;4979541;28;20317;-66
2022/01/20 15:07:23;;;;;;;;;;;9.50;80.10;;;;;;4978618;28;19910;-64
2022/01/20 15:09:49;;;;;;;;;;;9.50;80.20;;;;;;4990227;28;19910;-66
2022/01/20 15:12:15;;;;;;;;;;;9.40;80.80;;;;;;4990638;28;19910;-65
2022/01/20 15:14:40;;;;;;;;;;;9.40;81.10;;;;;;4984261;28;19914;-65
2022/01/20 15:17:06;;;;;;;;;;;9.40;81.20;;;;;;4988171;28;20481;-70
2022/01/20 15:19:32;;;;;;;;;;;9.30;81.20;;;;;;4983570;28;20025;-63
2022/01/20 15:21:58;;;;;;;;;;;9.20;81.20;;;;;;4975878;28;20278;-64
2022/01/20 15:24:25;;;;;;;;;;;9.10;81.90;;;;;;4975896;28;19917;-65
2022/01/20 15:26:51;;;;;;;;;;;8.90;82.10;;;;;;4975481;28;19914;-66
2022/01/20 15:29:17;;;;;;;;;;;9.00;82.40;;;;;;4975738;28;19992;-69
2022/01/20 15:31:42;;;;;;;;;;;9.00;82.20;;;;;;4974817;28;19914;-68
2022/01/20 15:34:11;;;;;;;;;;;9.10;81.80;;;;;;4975312;28;19910;-67
2022/01/20 15:36:37;;;;;;;;;;;9.10;80.90;;;;;;4974878;28;19910;-67